Delta Virtual Airport Information Service

London City Airport

ICAO: EGLC Country: United Kingdom
Latitude: 51.5053 Longitude: 0.055278
Latest Arrival : BAW705981 (EGPH-EGLC) Latest Departure : BAW705982 (EGLC-EGNS)


WX CaptureLIVE
Data provided by noaa.gov | Fetched at 04:21:30

METAR : EGLC 300850Z AUTO 16006KT 130V190 9999 FEW048 16/11 Q1010

TAF :


Runway Data for EGLC
Data provided by openaviationdata.com

Runway ID Mag Var Hdg Length Elevation Surface ILS Freq ILS Id ILS Slope
9 -1 93° 4930 ft 19 ft Concrete 111.15 ILST 5
27 -1 273° 4930 ft 19 ft Concrete 111.15 ILSR 5

London City Airport, United Kingdom
Use only for reference purposes



Not for navigational purposes.